sensor_id;sensor_type;location;lat;lon;timestamp;temperature;humidity
79187;SHT31;68616;51.980;5.646;2023-03-14T15:45:47;12.9;33.2
79187;SHT31;68616;51.980;5.646;2023-03-14T15:48:18;12.9;33.5
79187;SHT31;68616;51.980;5.646;2023-03-14T15:50:47;12.8;32.7
79187;SHT31;68616;51.980;5.646;2023-03-14T15:53:16;12.7;32.4
79187;SHT31;68616;51.980;5.646;2023-03-14T15:55:46;12.7;33.6
79187;SHT31;68616;51.980;5.646;2023-03-14T15:58:17;12.6;32.8
79187;SHT31;68616;51.980;5.646;2023-03-14T16:00:46;12.5;33.8
79187;SHT31;68616;51.980;5.646;2023-03-14T16:03:15;12.4;33.6
79187;SHT31;68616;51.980;5.646;2023-03-14T16:05:45;12.3;34.9
79187;SHT31;68616;51.980;5.646;2023-03-14T16:08:16;12.2;33.7
79187;SHT31;68616;51.980;5.646;2023-03-14T16:10:46;12.1;32.9
79187;SHT31;68616;51.980;5.646;2023-03-14T16:13:15;12.1;34.9
79187;SHT31;68616;51.980;5.646;2023-03-14T16:15:57;12.0;35.7
79187;SHT31;68616;51.980;5.646;2023-03-14T16:18:28;11.9;35.7
79187;SHT31;68616;51.980;5.646;2023-03-14T16:20:59;11.9;33.9
79187;SHT31;68616;51.980;5.646;2023-03-14T16:23:28;11.8;35.1
79187;SHT31;68616;51.980;5.646;2023-03-14T16:25:58;11.8;34.5
79187;SHT31;68616;51.980;5.646;2023-03-14T16:28:27;11.7;32.8
79187;SHT31;68616;51.980;5.646;2023-03-14T16:31:01;11.6;34.9
79187;SHT31;68616;51.980;5.646;2023-03-14T16:33:30;11.5;34.1
79187;SHT31;68616;51.980;5.646;2023-03-14T16:36:01;11.5;34.4
79187;SHT31;68616;51.980;5.646;2023-03-14T16:38:32;11.4;35.5
79187;SHT31;68616;51.980;5.646;2023-03-14T16:41:02;11.3;35.1
79187;SHT31;68616;51.980;5.646;2023-03-14T16:43:32;11.3;35.9
79187;SHT31;68616;51.980;5.646;2023-03-14T16:46:03;11.2;36.0
79187;SHT31;68616;51.980;5.646;2023-03-14T16:48:33;11.1;37.4
79187;SHT31;68616;51.980;5.646;2023-03-14T16:51:02;11.1;38.3
79187;SHT31;68616;51.980;5.646;2023-03-14T16:53:32;11.1;37.3
79187;SHT31;68616;51.980;5.646;2023-03-14T16:56:01;11.0;38.0
79187;SHT31;68616;51.980;5.646;2023-03-14T16:58:30;11.0;37.7
79187;SHT31;68616;51.980;5.646;2023-03-14T17:00:59;11.0;37.1
79187;SHT31;68616;51.980;5.646;2023-03-14T17:03:35;10.9;37.8
79187;SHT31;68616;51.980;5.646;2023-03-14T17:06:04;10.9;37.3
79187;SHT31;68616;51.980;5.646;2023-03-14T17:08:35;10.8;38.6
79187;SHT31;68616;51.980;5.646;2023-03-14T17:11:04;10.8;39.8
79187;SHT31;68616;51.980;5.646;2023-03-14T17:13:34;10.7;40.0
79187;SHT31;68616;51.980;5.646;2023-03-14T17:16:05;10.7;40.2
79187;SHT31;68616;51.980;5.646;2023-03-14T17:18:35;10.6;40.7
79187;SHT31;68616;51.980;5.646;2023-03-14T17:21:05;10.6;40.9
79187;SHT31;68616;51.980;5.646;2023-03-14T17:23:35;10.5;41.5
79187;SHT31;68616;51.980;5.646;2023-03-14T17:26:04;10.5;41.5
79187;SHT31;68616;51.980;5.646;2023-03-14T17:28:33;10.5;40.8
79187;SHT31;68616;51.980;5.646;2023-03-14T17:31:03;10.5;41.4
79187;SHT31;68616;51.980;5.646;2023-03-14T17:33:34;10.5;41.3
79187;SHT31;68616;51.980;5.646;2023-03-14T17:36:06;10.4;41.0
79187;SHT31;68616;51.980;5.646;2023-03-14T17:38:36;10.4;41.6
79187;SHT31;68616;51.980;5.646;2023-03-14T17:41:07;10.3;42.0
79187;SHT31;68616;51.980;5.646;2023-03-14T17:43:37;10.3;40.3
79187;SHT31;68616;51.980;5.646;2023-03-14T17:46:08;10.2;40.0
79187;SHT31;68616;51.980;5.646;2023-03-14T17:48:40;10.2;40.0
79187;SHT31;68616;51.980;5.646;2023-03-14T17:51:11;10.1;40.1
79187;SHT31;68616;51.980;5.646;2023-03-14T17:53:40;10.1;40.0
79187;SHT31;68616;51.980;5.646;2023-03-14T17:56:09;10.0;39.7
79187;SHT31;68616;51.980;5.646;2023-03-14T17:58:38;9.9;40.3
79187;SHT31;68616;51.980;5.646;2023-03-14T18:01:12;9.9;39.8
79187;SHT31;68616;51.980;5.646;2023-03-14T18:03:41;9.8;40.6
79187;SHT31;68616;51.980;5.646;2023-03-14T18:06:12;9.7;40.7
79187;SHT31;68616;51.980;5.646;2023-03-14T18:08:42;9.7;40.7
79187;SHT31;68616;51.980;5.646;2023-03-14T18:11:12;9.6;41.1
79187;SHT31;68616;51.980;5.646;2023-03-14T18:13:41;9.5;40.9
79187;SHT31;68616;51.980;5.646;2023-03-14T18:16:12;9.5;41.8
79187;SHT31;68616;51.980;5.646;2023-03-14T18:18:42;9.4;41.7
79187;SHT31;68616;51.980;5.646;2023-03-14T18:21:16;9.3;42.6
79187;SHT31;68616;51.980;5.646;2023-03-14T18:23:47;9.3;42.7
79187;SHT31;68616;51.980;5.646;2023-03-14T18:26:16;9.2;43.0
79187;SHT31;68616;51.980;5.646;2023-03-14T18:28:46;9.1;43.3
79187;SHT31;68616;51.980;5.646;2023-03-14T18:31:16;9.1;43.3
79187;SHT31;68616;51.980;5.646;2023-03-14T18:33:47;9.0;43.1
79187;SHT31;68616;51.980;5.646;2023-03-14T18:36:18;9.0;43.3
79187;SHT31;68616;51.980;5.646;2023-03-14T18:38:47;8.9;44.0
79187;SHT31;68616;51.980;5.646;2023-03-14T18:41:19;8.9;44.0
79187;SHT31;68616;51.980;5.646;2023-03-14T18:43:49;8.8;44.2
79187;SHT31;68616;51.980;5.646;2023-03-14T18:46:20;8.7;44.7
79187;SHT31;68616;51.980;5.646;2023-03-14T18:48:49;8.7;45.4
79187;SHT31;68616;51.980;5.646;2023-03-14T18:51:23;8.6;45.0
79187;SHT31;68616;51.980;5.646;2023-03-14T18:53:57;8.6;45.0
79187;SHT31;68616;51.980;5.646;2023-03-14T18:56:27;8.5;45.0
79187;SHT31;68616;51.980;5.646;2023-03-14T18:58:57;8.5;44.9
79187;SHT31;68616;51.980;5.646;2023-03-14T19:01:26;8.4;45.2
79187;SHT31;68616;51.980;5.646;2023-03-14T19:03:58;8.3;45.6
79187;SHT31;68616;51.980;5.646;2023-03-14T19:06:27;8.3;45.5
79187;SHT31;68616;51.980;5.646;2023-03-14T19:08:57;8.2;46.1
79187;SHT31;68616;51.980;5.646;2023-03-14T19:11:26;8.2;46.0
79187;SHT31;68616;51.980;5.646;2023-03-14T19:13:55;8.1;46.8
79187;SHT31;68616;51.980;5.646;2023-03-14T19:16:25;8.1;46.6
79187;SHT31;68616;51.980;5.646;2023-03-14T19:18:54;8.0;45.6
79187;SHT31;68616;51.980;5.646;2023-03-14T19:21:29;8.0;45.5
79187;SHT31;68616;51.980;5.646;2023-03-14T19:23:58;8.0;45.8
79187;SHT31;68616;51.980;5.646;2023-03-14T19:26:27;7.9;45.8
79187;SHT31;68616;51.980;5.646;2023-03-14T19:28:58;7.9;45.9
79187;SHT31;68616;51.980;5.646;2023-03-14T19:31:27;7.8;46.0
79187;SHT31;68616;51.980;5.646;2023-03-14T19:33:56;7.8;46.0
79187;SHT31;68616;51.980;5.646;2023-03-14T19:36:28;7.8;45.7
79187;SHT31;68616;51.980;5.646;2023-03-14T19:38:59;7.8;46.0
79187;SHT31;68616;51.980;5.646;2023-03-14T19:41:29;7.7;46.3
79187;SHT31;68616;51.980;5.646;2023-03-14T19:43:58;7.7;46.6
79187;SHT31;68616;51.980;5.646;2023-03-14T19:46:27;7.7;47.0
79187;SHT31;68616;51.980;5.646;2023-03-14T19:48:58;7.6;47.5
79187;SHT31;68616;51.980;5.646;2023-03-14T19:51:27;7.6;47.7
79187;SHT31;68616;51.980;5.646;2023-03-14T19:53:56;7.5;47.9
79187;SHT31;68616;51.980;5.646;2023-03-14T19:56:28;7.5;48.0
79187;SHT31;68616;51.980;5.646;2023-03-14T19:58:57;7.5;48.3
79187;SHT31;68616;51.980;5.646;2023-03-14T20:01:26;7.4;48.0
79187;SHT31;68616;51.980;5.646;2023-03-14T20:03:56;7.4;48.3
79187;SHT31;68616;51.980;5.646;2023-03-14T20:06:25;7.4;48.7
79187;SHT31;68616;51.980;5.646;2023-03-14T20:08:53;7.3;49.3
79187;SHT31;68616;51.980;5.646;2023-03-14T20:11:23;7.3;49.5
79187;SHT31;68616;51.980;5.646;2023-03-14T20:13:53;7.3;49.8
79187;SHT31;68616;51.980;5.646;2023-03-14T20:16:24;7.3;49.9
79187;SHT31;68616;51.980;5.646;2023-03-14T20:18:52;7.3;50.3
79187;SHT31;68616;51.980;5.646;2023-03-14T20:21:21;7.2;50.7
79187;SHT31;68616;51.980;5.646;2023-03-14T20:23:50;7.2;50.5
79187;SHT31;68616;51.980;5.646;2023-03-14T20:26:19;7.2;50.7
79187;SHT31;68616;51.980;5.646;2023-03-14T20:28:48;7.3;50.9
79187;SHT31;68616;51.980;5.646;2023-03-14T20:31:17;7.3;50.8
79187;SHT31;68616;51.980;5.646;2023-03-14T20:33:47;7.3;51.1
79187;SHT31;68616;51.980;5.646;2023-03-14T20:36:16;7.4;50.5
79187;SHT31;68616;51.980;5.646;2023-03-14T20:38:45;7.5;50.2
79187;SHT31;68616;51.980;5.646;2023-03-14T20:41:14;7.5;49.6
79187;SHT31;68616;51.980;5.646;2023-03-14T20:43:42;7.5;49.2
79187;SHT31;68616;51.980;5.646;2023-03-14T20:46:11;7.6;48.9
79187;SHT31;68616;51.980;5.646;2023-03-14T20:48:43;7.6;48.8
79187;SHT31;68616;51.980;5.646;2023-03-14T20:51:12;7.6;48.8
79187;SHT31;68616;51.980;5.646;2023-03-14T20:53:41;7.6;48.2
79187;SHT31;68616;51.980;5.646;2023-03-14T20:56:10;7.6;48.5
79187;SHT31;68616;51.980;5.646;2023-03-14T20:58:39;7.6;48.5
79187;SHT31;68616;51.980;5.646;2023-03-14T21:01:12;7.6;49.4
79187;SHT31;68616;51.980;5.646;2023-03-14T21:03:43;7.6;49.8
79187;SHT31;68616;51.980;5.646;2023-03-14T21:06:15;7.6;48.6
79187;SHT31;68616;51.980;5.646;2023-03-14T21:08:44;7.6;49.5
79187;SHT31;68616;51.980;5.646;2023-03-14T21:11:12;7.6;50.0
79187;SHT31;68616;51.980;5.646;2023-03-14T21:13:41;7.6;50.3
79187;SHT31;68616;51.980;5.646;2023-03-14T21:16:09;7.6;51.4
79187;SHT31;68616;51.980;5.646;2023-03-14T21:18:38;7.6;52.3
79187;SHT31;68616;51.980;5.646;2023-03-14T21:21:07;7.6;53.0
79187;SHT31;68616;51.980;5.646;2023-03-14T21:23:37;7.6;53.8
79187;SHT31;68616;51.980;5.646;2023-03-14T21:26:06;7.5;54.4
79187;SHT31;68616;51.980;5.646;2023-03-14T21:28:36;7.5;55.1
79187;SHT31;68616;51.980;5.646;2023-03-14T21:31:06;7.5;55.5
79187;SHT31;68616;51.980;5.646;2023-03-14T21:33:37;7.5;55.3
79187;SHT31;68616;51.980;5.646;2023-03-14T21:36:07;7.4;55.6
79187;SHT31;68616;51.980;5.646;2023-03-14T21:38:38;7.4;55.6
79187;SHT31;68616;51.980;5.646;2023-03-14T21:41:07;7.4;55.6
79187;SHT31;68616;51.980;5.646;2023-03-14T21:43:35;7.3;56.0
79187;SHT31;68616;51.980;5.646;2023-03-14T21:46:06;7.3;57.2
79187;SHT31;68616;51.980;5.646;2023-03-14T21:48:35;7.3;57.7
79187;SHT31;68616;51.980;5.646;2023-03-14T21:51:05;7.2;58.4
79187;SHT31;68616;51.980;5.646;2023-03-14T21:53:34;7.2;58.7
79187;SHT31;68616;51.980;5.646;2023-03-14T21:56:05;7.1;59.3
79187;SHT31;68616;51.980;5.646;2023-03-14T21:58:33;7.1;59.6
79187;SHT31;68616;51.980;5.646;2023-03-14T22:01:05;7.0;60.4
79187;SHT31;68616;51.980;5.646;2023-03-14T22:03:37;7.0;60.5
79187;SHT31;68616;51.980;5.646;2023-03-14T22:06:06;7.0;60.4
79187;SHT31;68616;51.980;5.646;2023-03-14T22:08:34;6.9;61.0
79187;SHT31;68616;51.980;5.646;2023-03-14T22:11:05;6.9;61.8
79187;SHT31;68616;51.980;5.646;2023-03-14T22:13:34;6.9;62.2
79187;SHT31;68616;51.980;5.646;2023-03-14T22:16:03;6.9;62.5
79187;SHT31;68616;51.980;5.646;2023-03-14T22:18:32;6.8;62.3
79187;SHT31;68616;51.980;5.646;2023-03-14T22:21:01;6.8;62.6
79187;SHT31;68616;51.980;5.646;2023-03-14T22:23:29;6.8;62.4
79187;SHT31;68616;51.980;5.646;2023-03-14T22:25:58;6.7;62.5
79187;SHT31;68616;51.980;5.646;2023-03-14T22:28:26;6.7;62.7
79187;SHT31;68616;51.980;5.646;2023-03-14T22:30:55;6.7;63.0
79187;SHT31;68616;51.980;5.646;2023-03-14T22:33:26;6.7;63.2
79187;SHT31;68616;51.980;5.646;2023-03-14T22:35:54;6.7;63.4
79187;SHT31;68616;51.980;5.646;2023-03-14T22:38:23;6.7;63.5
79187;SHT31;68616;51.980;5.646;2023-03-14T22:40:51;6.7;63.9
79187;SHT31;68616;51.980;5.646;2023-03-14T22:43:20;6.7;64.1
79187;SHT31;68616;51.980;5.646;2023-03-14T22:45:59;6.7;64.2
79187;SHT31;68616;51.980;5.646;2023-03-14T22:48:31;6.8;64.0
79187;SHT31;68616;51.980;5.646;2023-03-14T22:51:07;6.8;65.2
79187;SHT31;68616;51.980;5.646;2023-03-14T22:53:38;6.8;65.0
79187;SHT31;68616;51.980;5.646;2023-03-14T22:56:08;6.8;64.2
79187;SHT31;68616;51.980;5.646;2023-03-14T22:58:37;6.8;64.2
79187;SHT31;68616;51.980;5.646;2023-03-14T23:01:06;6.8;63.3
79187;SHT31;68616;51.980;5.646;2023-03-14T23:03:34;6.8;63.3
79187;SHT31;68616;51.980;5.646;2023-03-14T23:06:05;6.7;63.4
79187;SHT31;68616;51.980;5.646;2023-03-14T23:08:33;6.7;63.8
79187;SHT31;68616;51.980;5.646;2023-03-14T23:11:04;6.6;64.2
79187;SHT31;68616;51.980;5.646;2023-03-14T23:13:34;6.6;64.7
79187;SHT31;68616;51.980;5.646;2023-03-14T23:16:03;6.5;64.8
79187;SHT31;68616;51.980;5.646;2023-03-14T23:18:33;6.5;65.0
79187;SHT31;68616;51.980;5.646;2023-03-14T23:21:07;6.5;65.7
79187;SHT31;68616;51.980;5.646;2023-03-14T23:23:36;6.5;65.7
79187;SHT31;68616;51.980;5.646;2023-03-14T23:26:08;6.5;65.9
79187;SHT31;68616;51.980;5.646;2023-03-14T23:28:37;6.5;65.9
79187;SHT31;68616;51.980;5.646;2023-03-14T23:31:07;6.5;66.2
79187;SHT31;68616;51.980;5.646;2023-03-14T23:33:40;6.5;66.4
79187;SHT31;68616;51.980;5.646;2023-03-14T23:36:11;6.5;66.2
79187;SHT31;68616;51.980;5.646;2023-03-14T23:38:41;6.5;66.1
79187;SHT31;68616;51.980;5.646;2023-03-14T23:41:11;6.5;66.0
79187;SHT31;68616;51.980;5.646;2023-03-14T23:43:43;6.5;66.2
79187;SHT31;68616;51.980;5.646;2023-03-14T23:46:15;6.5;65.4
79187;SHT31;68616;51.980;5.646;2023-03-14T23:48:43;6.5;64.3
79187;SHT31;68616;51.980;5.646;2023-03-14T23:51:13;6.6;64.3
79187;SHT31;68616;51.980;5.646;2023-03-14T23:53:43;6.6;64.0
79187;SHT31;68616;51.980;5.646;2023-03-14T23:56:13;6.6;63.5
79187;SHT31;68616;51.980;5.646;2023-03-14T23:58:42;6.6;63.5
